createdAt,value
2023-04-15T00:00:37.660Z,5.42
2023-04-15T00:03:55.026Z,5.41
2023-04-15T00:06:57.941Z,5.45
2023-04-15T00:10:00.880Z,5.49
2023-04-15T00:13:04.607Z,5.52
2023-04-15T00:16:08.639Z,5.67
2023-04-15T00:19:12.097Z,5.78
2023-04-15T00:22:14.982Z,5.81
2023-04-15T00:25:18.127Z,5.80
2023-04-15T00:28:21.213Z,5.76
2023-04-15T00:31:24.286Z,5.71
2023-04-15T00:34:28.067Z,5.63
2023-04-15T00:37:31.188Z,5.55
2023-04-15T00:40:34.502Z,5.47
2023-04-15T00:43:37.576Z,5.38
2023-04-15T00:46:41.632Z,5.29
2023-04-15T00:49:44.479Z,5.20
2023-04-15T00:52:47.448Z,5.16
2023-04-15T00:55:51.472Z,5.22
2023-04-15T00:58:54.496Z,5.36
2023-04-15T01:01:57.483Z,5.46
2023-04-15T01:05:00.658Z,5.52
2023-04-15T01:08:03.950Z,5.55
2023-04-15T01:11:07.941Z,5.52
2023-04-15T01:14:11.356Z,5.46
2023-04-15T01:17:14.586Z,5.39
2023-04-15T01:20:17.690Z,5.32
2023-04-15T01:23:23.152Z,5.23
2023-04-15T01:26:26.255Z,5.13
2023-04-15T01:29:29.561Z,5.06
2023-04-15T01:32:32.646Z,4.91
2023-04-15T01:35:35.656Z,4.74
2023-04-15T01:38:39.170Z,4.59
2023-04-15T01:41:42.585Z,4.50
2023-04-15T01:44:45.443Z,4.45
2023-04-15T01:47:48.318Z,4.35
2023-04-15T01:50:52.002Z,4.26
2023-04-15T01:53:57.071Z,4.20
2023-04-15T01:56:59.919Z,4.24
2023-04-15T02:00:04.610Z,4.33
2023-04-15T02:03:07.731Z,4.38
2023-04-15T02:06:10.650Z,4.37
2023-04-15T02:09:13.587Z,4.29
2023-04-15T02:12:16.594Z,4.19
2023-04-15T02:15:19.455Z,4.09
2023-04-15T02:18:22.300Z,4.02
2023-04-15T02:21:27.098Z,4.00
2023-04-15T02:24:31.300Z,3.92
2023-04-15T02:27:34.307Z,3.82
2023-04-15T02:30:37.182Z,3.73
2023-04-15T02:33:40.286Z,3.64
2023-04-15T02:36:43.070Z,3.57
2023-04-15T02:39:46.103Z,3.52
2023-04-15T02:42:49.239Z,3.48
2023-04-15T02:45:52.481Z,3.40
2023-04-15T02:48:55.620Z,3.32
2023-04-15T02:52:00.083Z,3.24
2023-04-15T02:55:04.583Z,3.17
2023-04-15T02:58:07.695Z,3.11
2023-04-15T03:01:10.797Z,3.05
2023-04-15T03:04:14.498Z,3.00
2023-04-15T03:07:18.793Z,2.97
2023-04-15T03:10:22.284Z,2.95
2023-04-15T03:13:25.425Z,2.94
2023-04-15T03:16:28.280Z,2.96
2023-04-15T03:19:31.997Z,2.99
2023-04-15T03:22:34.786Z,3.01
2023-04-15T03:25:37.777Z,3.02
2023-04-15T03:28:40.776Z,3.04
2023-04-15T03:31:43.683Z,3.01
2023-04-15T03:34:46.590Z,2.98
2023-04-15T03:37:49.616Z,2.94
2023-04-15T03:40:52.430Z,2.90
2023-04-15T03:43:55.283Z,2.84
2023-04-15T03:46:58.127Z,2.79
2023-04-15T03:50:01.309Z,2.74
2023-04-15T03:53:04.242Z,2.70
2023-04-15T03:56:07.445Z,2.67
2023-04-15T03:59:10.719Z,2.66
2023-04-15T04:02:13.715Z,2.66
2023-04-15T04:05:16.895Z,2.66
2023-04-15T04:08:22.415Z,2.69
2023-04-15T04:11:25.391Z,2.76
2023-04-15T04:14:29.872Z,2.85
2023-04-15T04:17:33.010Z,2.96
2023-04-15T04:20:36.012Z,3.05
2023-04-15T04:23:38.923Z,3.13
2023-04-15T04:26:41.796Z,3.20
2023-04-15T04:29:44.690Z,3.26
2023-04-15T04:32:47.765Z,3.39
2023-04-15T04:35:50.622Z,3.50
2023-04-15T04:38:53.446Z,3.61
2023-04-15T04:41:56.328Z,3.77
2023-04-15T04:44:59.204Z,3.99
2023-04-15T04:48:02.108Z,4.25
2023-04-15T04:51:05.276Z,4.38
2023-04-15T04:54:08.220Z,4.45
2023-04-15T04:57:13.646Z,4.49
2023-04-15T05:00:17.217Z,4.54
2023-04-15T05:03:20.433Z,4.62
2023-04-15T05:06:23.647Z,4.74
2023-04-15T05:09:26.710Z,4.92
2023-04-15T05:12:29.617Z,5.24
2023-04-15T05:15:33.200Z,5.65
2023-04-15T05:18:36.841Z,6.12
2023-04-15T05:21:39.777Z,6.66
2023-04-15T05:24:42.660Z,7.16
2023-04-15T05:27:45.662Z,7.54
2023-04-15T05:30:48.632Z,7.87
2023-04-15T05:33:51.602Z,8.14
2023-04-15T05:36:54.497Z,8.37
2023-04-15T05:39:57.413Z,8.51
2023-04-15T05:43:00.248Z,8.67
2023-04-15T05:46:03.146Z,8.85
2023-04-15T05:49:06.325Z,9.05
2023-04-15T05:52:09.255Z,9.24
2023-04-15T05:55:12.574Z,9.45
2023-04-15T05:58:15.601Z,9.61
2023-04-15T06:01:18.430Z,9.77
2023-04-15T06:04:22.031Z,9.97
2023-04-15T06:07:25.236Z,10.25
2023-04-15T06:10:28.283Z,10.56
2023-04-15T06:13:31.275Z,10.84
2023-04-15T06:16:35.044Z,11.16
2023-04-15T06:19:37.918Z,11.51
2023-04-15T06:22:40.961Z,11.86
2023-04-15T06:25:43.886Z,12.12
2023-04-15T06:28:46.892Z,12.31
2023-04-15T06:31:49.906Z,12.29
2023-04-15T06:34:52.784Z,12.29
2023-04-15T06:37:55.856Z,12.26
2023-04-15T06:40:58.750Z,12.34
2023-04-15T06:44:01.585Z,12.37
2023-04-15T06:47:04.586Z,12.48
2023-04-15T06:50:09.432Z,12.57
2023-04-15T06:53:12.476Z,12.54
2023-04-15T06:56:15.959Z,12.46
2023-04-15T06:59:19.157Z,12.45
2023-04-15T07:02:22.324Z,12.62
2023-04-15T07:05:25.533Z,12.93
2023-04-15T07:08:28.452Z,13.25
2023-04-15T07:11:31.408Z,13.49
2023-04-15T07:14:34.296Z,13.54
2023-04-15T07:17:37.383Z,13.60
2023-04-15T07:20:40.352Z,13.46
2023-04-15T07:23:43.220Z,13.44
2023-04-15T07:26:46.709Z,13.41
2023-04-15T07:29:51.666Z,13.47
2023-04-15T07:32:54.661Z,13.55
2023-04-15T07:35:57.580Z,13.62
2023-04-15T07:39:02.464Z,13.68
2023-04-15T07:42:05.728Z,13.84
2023-04-15T07:45:09.547Z,13.97
2023-04-15T07:48:12.529Z,14.22
2023-04-15T07:51:15.450Z,14.69
2023-04-15T07:54:18.298Z,14.99
2023-04-15T07:57:21.161Z,15.25
2023-04-15T08:00:24.197Z,15.32
2023-04-15T08:03:27.879Z,15.26
2023-04-15T08:06:31.040Z,15.50
2023-04-15T08:09:34.156Z,15.69
2023-04-15T08:12:37.336Z,15.84
2023-04-15T08:15:40.376Z,15.99
2023-04-15T08:18:43.288Z,16.11
2023-04-15T08:21:46.929Z,16.11
2023-04-15T08:24:49.958Z,16.23
2023-04-15T08:27:55.550Z,16.48
2023-04-15T08:30:58.508Z,16.57
2023-04-15T08:34:01.446Z,16.80
2023-04-15T08:37:04.366Z,16.62
2023-04-15T08:40:08.686Z,16.40
2023-04-15T08:43:15.914Z,16.20
2023-04-15T08:46:19.734Z,16.00
2023-04-15T08:49:26.713Z,15.87
2023-04-15T08:52:31.680Z,15.88
2023-04-15T08:55:36.972Z,16.07
2023-04-15T08:58:40.003Z,16.35
2023-04-15T09:01:43.741Z,16.27
2023-04-15T09:04:46.663Z,16.30
2023-04-15T09:07:51.559Z,16.34
2023-04-15T09:10:55.301Z,16.35
2023-04-15T09:13:58.195Z,16.42
2023-04-15T09:17:03.594Z,16.46
2023-04-15T09:20:11.704Z,16.48
2023-04-15T09:23:15.748Z,16.63
2023-04-15T09:26:18.894Z,16.71
2023-04-15T09:29:27.107Z,16.74
2023-04-15T09:32:30.904Z,16.99
2023-04-15T09:35:36.422Z,17.18
2023-04-15T09:38:55.390Z,17.35
2023-04-15T09:42:07.034Z,17.32
2023-04-15T09:45:12.310Z,17.21
2023-04-15T09:48:18.400Z,17.08
2023-04-15T09:51:35.281Z,16.93
2023-04-15T09:54:38.944Z,16.69
2023-04-15T09:57:42.511Z,16.54
2023-04-15T10:00:48.350Z,16.25
2023-04-15T10:03:52.697Z,15.92
2023-04-15T10:06:57.146Z,15.69
2023-04-15T10:10:03.218Z,15.77
2023-04-15T10:13:07.280Z,15.79
2023-04-15T10:16:19.969Z,15.89
2023-04-15T10:19:27.279Z,16.24
2023-04-15T10:22:30.814Z,16.40
2023-04-15T10:25:33.838Z,16.62
2023-04-15T10:28:36.776Z,16.91
2023-04-15T10:31:41.624Z,17.21
2023-04-15T10:34:46.530Z,17.33
2023-04-15T10:37:49.482Z,17.44
2023-04-15T10:40:54.407Z,17.53
2023-04-15T10:44:04.995Z,17.55
2023-04-15T10:47:19.114Z,17.55
2023-04-15T10:50:22.483Z,17.60
2023-04-15T10:53:30.221Z,17.71
2023-04-15T10:56:33.113Z,17.74
2023-04-15T10:59:58.992Z,17.71
2023-04-15T11:03:11.034Z,17.64
2023-04-15T11:06:14.116Z,17.57
2023-04-15T11:09:42.528Z,17.47
2023-04-15T11:12:46.167Z,17.27
2023-04-15T11:15:49.872Z,17.27
2023-04-15T11:18:56.266Z,17.70
2023-04-15T11:22:12.746Z,18.08
2023-04-15T11:25:34.419Z,18.28
2023-04-15T11:28:39.050Z,18.54
2023-04-15T11:31:42.392Z,18.63
2023-04-15T11:34:47.117Z,18.56
2023-04-15T11:37:51.193Z,18.45
2023-04-15T11:40:54.192Z,18.43
2023-04-15T11:43:57.199Z,18.58
2023-04-15T11:47:00.153Z,18.74
2023-04-15T11:50:20.552Z,18.96
2023-04-15T11:53:26.082Z,19.03
2023-04-15T11:56:29.101Z,19.00
2023-04-15T11:59:46.207Z,18.84
2023-04-15T12:02:51.312Z,18.59
2023-04-15T12:06:10.517Z,18.32
2023-04-15T12:09:15.140Z,18.14
2023-04-15T12:12:19.607Z,18.10
2023-04-15T12:15:24.232Z,18.12
2023-04-15T12:18:27.991Z,18.32
2023-04-15T12:21:35.335Z,18.59
2023-04-15T12:24:39.524Z,18.80
2023-04-15T12:27:42.681Z,18.71
2023-04-15T12:30:54.568Z,18.79
2023-04-15T12:33:58.765Z,18.62
2023-04-15T12:37:04.351Z,18.46
2023-04-15T12:40:08.889Z,18.48
2023-04-15T12:43:12.035Z,18.54
2023-04-15T12:46:15.860Z,18.64
2023-04-15T12:49:21.032Z,18.56
2023-04-15T12:52:24.647Z,18.51
2023-04-15T12:55:27.944Z,18.24
2023-04-15T12:58:30.811Z,18.17
2023-04-15T13:01:33.753Z,17.93
2023-04-15T13:04:36.935Z,17.83
2023-04-15T13:07:40.127Z,17.50
2023-04-15T13:10:43.767Z,17.46
2023-04-15T13:13:46.747Z,17.37
2023-04-15T13:16:49.852Z,16.79
2023-04-15T13:19:52.793Z,16.25
2023-04-15T13:22:55.771Z,15.89
2023-04-15T13:25:58.842Z,15.50
2023-04-15T13:29:02.082Z,15.12
2023-04-15T13:32:05.306Z,14.94
2023-04-15T13:35:08.759Z,14.69
2023-04-15T13:38:11.690Z,14.37
2023-04-15T13:41:14.582Z,14.11
2023-04-15T13:44:18.477Z,14.01
2023-04-15T13:47:22.748Z,13.84
2023-04-15T13:50:46.849Z,13.66
2023-04-15T13:54:37.772Z,13.43
2023-04-15T13:58:21.432Z,13.08
2023-04-15T14:02:02.451Z,12.66
2023-04-15T14:05:46.498Z,12.29
2023-04-15T14:09:43.516Z,12.05
2023-04-15T14:12:58.165Z,11.76
2023-04-15T14:16:49.006Z,11.47
2023-04-15T14:20:55.162Z,11.29
2023-04-15T14:24:57.862Z,11.14
2023-04-15T14:28:48.395Z,11.18
2023-04-15T14:33:04.600Z,11.40
2023-04-15T14:36:56.939Z,11.64
2023-04-15T14:40:50.150Z,11.85
2023-04-15T14:44:45.073Z,12.12
2023-04-15T14:48:38.780Z,12.44
2023-04-15T14:51:56.232Z,12.95
2023-04-15T14:55:46.391Z,13.33
2023-04-15T14:59:44.925Z,13.71
2023-04-15T15:03:19.648Z,13.97
2023-04-15T15:06:47.357Z,14.28
2023-04-15T15:10:16.125Z,14.74
2023-04-15T15:13:47.266Z,14.98
2023-04-15T15:17:21.457Z,14.79
2023-04-15T15:21:09.653Z,14.63
2023-04-15T15:24:36.347Z,14.56
2023-04-15T15:28:01.316Z,14.68
2023-04-15T15:31:50.601Z,14.80
2023-04-15T15:35:24.302Z,15.10
2023-04-15T15:38:52.192Z,15.32
2023-04-15T15:42:20.288Z,15.42
2023-04-15T15:45:55.111Z,15.29
2023-04-15T15:49:38.038Z,15.24
2023-04-15T15:53:05.045Z,15.19
2023-04-15T15:56:11.220Z,14.90
2023-04-15T15:59:14.497Z,14.47
2023-04-15T16:02:56.322Z,14.09
2023-04-15T16:06:29.988Z,13.56
2023-04-15T16:09:33.909Z,13.14
2023-04-15T16:12:45.161Z,12.82
2023-04-15T16:15:57.054Z,12.60
2023-04-15T16:19:22.152Z,12.40
2023-04-15T16:22:42.582Z,12.10
2023-04-15T16:26:38.907Z,11.66
2023-04-15T16:30:33.384Z,11.26
2023-04-15T16:34:18.661Z,10.83
2023-04-15T16:38:24.204Z,10.56
2023-04-15T16:42:51.439Z,10.25
2023-04-15T16:47:04.610Z,9.92
2023-04-15T16:51:49.622Z,9.65
2023-04-15T16:56:13.868Z,9.44
2023-04-15T17:00:49.445Z,9.28
2023-04-15T17:05:35.820Z,9.06
2023-04-15T17:10:20.672Z,8.92
2023-04-15T17:14:41.374Z,8.80
2023-04-15T17:18:47.110Z,8.72
2023-04-15T17:23:31.432Z,8.62
2023-04-15T17:27:39.265Z,8.57
2023-04-15T17:32:23.802Z,8.46
2023-04-15T17:37:05.025Z,8.36
2023-04-15T17:41:09.385Z,8.27
2023-04-15T17:45:37.288Z,8.20
2023-04-15T17:50:23.978Z,8.17
2023-04-15T17:54:44.612Z,8.16
2023-04-15T17:58:48.612Z,8.16
2023-04-15T18:03:22.907Z,8.16
2023-04-15T18:07:48.906Z,8.17
2023-04-15T18:11:57.055Z,8.20
2023-04-15T18:16:23.602Z,8.22
2023-04-15T18:20:42.893Z,8.20
2023-04-15T18:25:09.801Z,8.19
2023-04-15T18:34:19.976Z,8.17
2023-04-15T18:38:42.944Z,8.22
2023-04-15T18:42:40.550Z,8.24
2023-04-15T18:46:45.010Z,8.24
2023-04-15T18:51:11.225Z,8.21
2023-04-15T18:55:18.991Z,8.19
2023-04-15T18:59:36.895Z,8.18
2023-04-15T19:09:54.588Z,8.24
2023-04-15T19:13:53.378Z,8.21
2023-04-15T19:17:50.525Z,8.19
2023-04-15T19:22:17.839Z,8.14
2023-04-15T19:26:26.951Z,8.09
2023-04-15T19:31:14.098Z,8.03
2023-04-15T19:39:14.176Z,7.96
2023-04-15T19:43:47.532Z,7.85
2023-04-15T19:48:08.488Z,7.74
2023-04-15T19:52:32.630Z,7.65
2023-04-15T19:57:06.269Z,7.58
2023-04-15T20:01:39.520Z,7.51
2023-04-15T20:06:25.256Z,7.42
2023-04-15T20:10:48.686Z,7.32
2023-04-15T20:15:34.940Z,7.22
2023-04-15T20:20:19.777Z,7.11
2023-04-15T20:24:19.061Z,7.02
2023-04-15T20:28:33.551Z,6.91
2023-04-15T20:33:01.972Z,6.77
2023-04-15T20:37:20.077Z,6.64
2023-04-15T20:41:50.271Z,6.50
2023-04-15T20:46:20.921Z,6.43
2023-04-15T20:50:16.670Z,6.40
2023-04-15T20:54:24.279Z,6.42
2023-04-15T20:58:53.067Z,6.47
2023-04-15T21:03:11.433Z,6.53
2023-04-15T21:07:20.850Z,6.58
2023-04-15T21:12:07.087Z,6.63
2023-04-15T21:16:51.543Z,6.68
2023-04-15T21:21:39.641Z,6.70
2023-04-15T21:25:46.899Z,6.72
2023-04-15T21:30:15.403Z,6.74
2023-04-15T21:34:55.924Z,6.72
2023-04-15T21:39:23.449Z,6.72
2023-04-15T21:43:49.186Z,6.71
2023-04-15T21:48:06.038Z,6.69
2023-04-15T21:52:13.606Z,6.68
2023-04-15T21:56:38.107Z,6.68
2023-04-15T22:01:13.347Z,6.67
2023-04-15T22:05:30.179Z,6.67
2023-04-15T22:10:03.953Z,6.71
2023-04-15T22:14:22.271Z,6.70
2023-04-15T22:18:34.290Z,6.72
2023-04-15T22:22:54.482Z,6.73
2023-04-15T22:27:08.474Z,6.73
2023-04-15T22:31:22.321Z,6.67
2023-04-15T22:35:42.833Z,6.55
2023-04-15T22:40:26.998Z,6.41
2023-04-15T22:44:37.436Z,6.32
2023-04-15T22:48:57.943Z,6.24
2023-04-15T22:53:09.986Z,6.15
2023-04-15T22:57:41.925Z,6.05
2023-04-15T23:01:48.607Z,5.93
2023-04-15T23:05:53.254Z,5.79
2023-04-15T23:10:18.251Z,5.63
2023-04-15T23:14:30.950Z,5.49
2023-04-15T23:18:37.714Z,5.34
2023-04-15T23:23:01.140Z,5.18
2023-04-15T23:27:13.217Z,5.01
2023-04-15T23:31:44.194Z,4.83
2023-04-15T23:35:56.101Z,4.70
2023-04-15T23:40:08.335Z,4.59
2023-04-15T23:44:41.008Z,4.49
2023-04-15T23:48:51.093Z,4.38
2023-04-15T23:53:03.373Z,4.25
2023-04-15T23:57:28.464Z,4.15
